sensor_id;sensor_type;location;lat;lon;timestamp;P1;durP1;ratioP1;P2;durP2;ratioP2
43086;SDS011;28708;52.224;6.924;2023-01-04T00:00:33;7.97;;;2.20;;
43086;SDS011;28708;52.224;6.924;2023-01-04T00:02:59;9.10;;;2.40;;
43086;SDS011;28708;52.224;6.924;2023-01-04T00:05:25;10.93;;;2.70;;
43086;SDS011;28708;52.224;6.924;2023-01-04T00:07:50;9.07;;;2.10;;
43086;SDS011;28708;52.224;6.924;2023-01-04T00:10:16;8.50;;;1.80;;
43086;SDS011;28708;52.224;6.924;2023-01-04T00:12:42;9.27;;;2.07;;
43086;SDS011;28708;52.224;6.924;2023-01-04T00:15:08;11.27;;;2.20;;
43086;SDS011;28708;52.224;6.924;2023-01-04T00:17:34;6.37;;;1.70;;
43086;SDS011;28708;52.224;6.924;2023-01-04T00:19:59;7.13;;;1.80;;
43086;SDS011;28708;52.224;6.924;2023-01-04T00:22:25;10.87;;;2.50;;
43086;SDS011;28708;52.224;6.924;2023-01-04T00:24:51;8.50;;;2.30;;
43086;SDS011;28708;52.224;6.924;2023-01-04T00:27:16;9.60;;;2.10;;
43086;SDS011;28708;52.224;6.924;2023-01-04T00:29:42;9.30;;;2.20;;
43086;SDS011;28708;52.224;6.924;2023-01-04T00:32:08;8.93;;;1.87;;
43086;SDS011;28708;52.224;6.924;2023-01-04T00:34:33;10.83;;;2.17;;
43086;SDS011;28708;52.224;6.924;2023-01-04T00:36:59;8.50;;;2.20;;
43086;SDS011;28708;52.224;6.924;2023-01-04T00:39:25;8.30;;;2.03;;
43086;SDS011;28708;52.224;6.924;2023-01-04T00:41:51;8.47;;;2.07;;
43086;SDS011;28708;52.224;6.924;2023-01-04T00:44:18;10.37;;;2.10;;
43086;SDS011;28708;52.224;6.924;2023-01-04T00:46:45;9.20;;;2.40;;
43086;SDS011;28708;52.224;6.924;2023-01-04T00:49:11;10.60;;;1.77;;
43086;SDS011;28708;52.224;6.924;2023-01-04T00:51:37;8.93;;;2.10;;
43086;SDS011;28708;52.224;6.924;2023-01-04T00:54:05;8.63;;;2.20;;
43086;SDS011;28708;52.224;6.924;2023-01-04T00:56:33;9.53;;;2.20;;
43086;SDS011;28708;52.224;6.924;2023-01-04T00:59:00;7.27;;;1.77;;
43086;SDS011;28708;52.224;6.924;2023-01-04T01:01:27;11.60;;;2.63;;
43086;SDS011;28708;52.224;6.924;2023-01-04T01:03:54;8.93;;;2.33;;
43086;SDS011;28708;52.224;6.924;2023-01-04T01:06:21;9.27;;;2.07;;
43086;SDS011;28708;52.224;6.924;2023-01-04T01:08:49;8.77;;;2.40;;
43086;SDS011;28708;52.224;6.924;2023-01-04T01:11:18;8.50;;;1.73;;
43086;SDS011;28708;52.224;6.924;2023-01-04T01:13:45;8.03;;;2.27;;
43086;SDS011;28708;52.224;6.924;2023-01-04T01:16:14;10.23;;;2.60;;
43086;SDS011;28708;52.224;6.924;2023-01-04T01:18:43;7.77;;;2.03;;
43086;SDS011;28708;52.224;6.924;2023-01-04T01:21:20;12.20;;;2.20;;
43086;SDS011;28708;52.224;6.924;2023-01-04T01:23:47;11.57;;;2.30;;
43086;SDS011;28708;52.224;6.924;2023-01-04T01:26:14;9.47;;;2.60;;
43086;SDS011;28708;52.224;6.924;2023-01-04T01:28:41;7.03;;;2.03;;
43086;SDS011;28708;52.224;6.924;2023-01-04T01:31:07;16.33;;;2.57;;
43086;SDS011;28708;52.224;6.924;2023-01-04T01:33:35;10.53;;;2.27;;
43086;SDS011;28708;52.224;6.924;2023-01-04T01:36:03;10.93;;;2.33;;
43086;SDS011;28708;52.224;6.924;2023-01-04T01:38:29;10.27;;;2.63;;
43086;SDS011;28708;52.224;6.924;2023-01-04T01:40:55;13.67;;;2.40;;
43086;SDS011;28708;52.224;6.924;2023-01-04T01:43:22;9.37;;;2.43;;
43086;SDS011;28708;52.224;6.924;2023-01-04T01:46:08;10.97;;;2.37;;
43086;SDS011;28708;52.224;6.924;2023-01-04T01:48:34;11.67;;;3.00;;
43086;SDS011;28708;52.224;6.924;2023-01-04T01:51:01;11.50;;;2.77;;
43086;SDS011;28708;52.224;6.924;2023-01-04T01:53:29;9.03;;;2.47;;
43086;SDS011;28708;52.224;6.924;2023-01-04T01:58:28;14.37;;;3.20;;
43086;SDS011;28708;52.224;6.924;2023-01-04T02:00:58;11.43;;;2.80;;
43086;SDS011;28708;52.224;6.924;2023-01-04T02:03:31;10.57;;;3.00;;
43086;SDS011;28708;52.224;6.924;2023-01-04T02:06:00;10.10;;;2.77;;
43086;SDS011;28708;52.224;6.924;2023-01-04T02:08:28;10.83;;;3.00;;
43086;SDS011;28708;52.224;6.924;2023-01-04T02:10:54;8.83;;;3.47;;
43086;SDS011;28708;52.224;6.924;2023-01-04T02:13:22;17.03;;;4.57;;
43086;SDS011;28708;52.224;6.924;2023-01-04T02:18:55;11.63;;;3.33;;
43086;SDS011;28708;52.224;6.924;2023-01-04T02:38:24;9.33;;;3.73;;
43086;SDS011;28708;52.224;6.924;2023-01-04T02:41:01;12.00;;;3.33;;
43086;SDS011;28708;52.224;6.924;2023-01-04T02:43:30;6.83;;;3.67;;
43086;SDS011;28708;52.224;6.924;2023-01-04T02:46:41;9.50;;;4.03;;
43086;SDS011;28708;52.224;6.924;2023-01-04T02:49:10;9.77;;;4.57;;
43086;SDS011;28708;52.224;6.924;2023-01-04T02:51:57;8.67;;;4.17;;
43086;SDS011;28708;52.224;6.924;2023-01-04T02:54:24;10.17;;;4.67;;
43086;SDS011;28708;52.224;6.924;2023-01-04T02:57:07;14.60;;;4.40;;
43086;SDS011;28708;52.224;6.924;2023-01-04T03:00:03;9.03;;;4.13;;
43086;SDS011;28708;52.224;6.924;2023-01-04T03:05:59;11.00;;;4.40;;
43086;SDS011;28708;52.224;6.924;2023-01-04T03:08:58;9.80;;;3.90;;
43086;SDS011;28708;52.224;6.924;2023-01-04T03:14:28;8.93;;;4.20;;
43086;SDS011;28708;52.224;6.924;2023-01-04T03:17:03;10.00;;;4.87;;
43086;SDS011;28708;52.224;6.924;2023-01-04T03:19:31;8.37;;;4.63;;
43086;SDS011;28708;52.224;6.924;2023-01-04T03:22:15;11.90;;;4.27;;
43086;SDS011;28708;52.224;6.924;2023-01-04T03:25:02;8.90;;;4.13;;
43086;SDS011;28708;52.224;6.924;2023-01-04T03:27:49;9.43;;;4.47;;
43086;SDS011;28708;52.224;6.924;2023-01-04T03:30:38;7.93;;;3.80;;
43086;SDS011;28708;52.224;6.924;2023-01-04T03:33:33;8.43;;;3.77;;
43086;SDS011;28708;52.224;6.924;2023-01-04T03:36:19;14.10;;;3.43;;
43086;SDS011;28708;52.224;6.924;2023-01-04T03:38:55;8.10;;;3.47;;
43086;SDS011;28708;52.224;6.924;2023-01-04T03:41:56;7.70;;;2.93;;
43086;SDS011;28708;52.224;6.924;2023-01-04T03:44:43;7.70;;;2.90;;
43086;SDS011;28708;52.224;6.924;2023-01-04T03:47:46;8.27;;;2.90;;
43086;SDS011;28708;52.224;6.924;2023-01-04T03:50:38;5.97;;;2.50;;
43086;SDS011;28708;52.224;6.924;2023-01-04T03:53:08;6.40;;;2.40;;
43086;SDS011;28708;52.224;6.924;2023-01-04T03:55:36;7.63;;;2.40;;
43086;SDS011;28708;52.224;6.924;2023-01-04T03:58:03;6.87;;;3.07;;
43086;SDS011;28708;52.224;6.924;2023-01-04T04:00:29;7.80;;;2.33;;
43086;SDS011;28708;52.224;6.924;2023-01-04T04:02:56;7.40;;;2.17;;
43086;SDS011;28708;52.224;6.924;2023-01-04T04:05:31;6.07;;;2.30;;
43086;SDS011;28708;52.224;6.924;2023-01-04T04:08:18;4.33;;;2.30;;
43086;SDS011;28708;52.224;6.924;2023-01-04T04:11:00;3.30;;;1.90;;
43086;SDS011;28708;52.224;6.924;2023-01-04T04:13:46;3.53;;;2.20;;
43086;SDS011;28708;52.224;6.924;2023-01-04T04:16:13;6.87;;;2.67;;
43086;SDS011;28708;52.224;6.924;2023-01-04T04:18:39;3.27;;;2.20;;
43086;SDS011;28708;52.224;6.924;2023-01-04T04:21:05;5.40;;;2.20;;
43086;SDS011;28708;52.224;6.924;2023-01-04T04:23:31;5.37;;;2.50;;
43086;SDS011;28708;52.224;6.924;2023-01-04T04:25:56;5.53;;;2.40;;
43086;SDS011;28708;52.224;6.924;2023-01-04T04:28:22;3.33;;;2.30;;
43086;SDS011;28708;52.224;6.924;2023-01-04T04:30:48;4.33;;;2.37;;
43086;SDS011;28708;52.224;6.924;2023-01-04T04:33:14;5.20;;;2.27;;
43086;SDS011;28708;52.224;6.924;2023-01-04T04:35:39;4.90;;;2.40;;
43086;SDS011;28708;52.224;6.924;2023-01-04T04:38:05;6.90;;;2.40;;
43086;SDS011;28708;52.224;6.924;2023-01-04T04:40:31;4.53;;;2.50;;
43086;SDS011;28708;52.224;6.924;2023-01-04T04:43:15;5.33;;;2.50;;
43086;SDS011;28708;52.224;6.924;2023-01-04T04:45:41;8.57;;;2.97;;
43086;SDS011;28708;52.224;6.924;2023-01-04T04:48:06;5.43;;;2.57;;
43086;SDS011;28708;52.224;6.924;2023-01-04T04:50:32;10.47;;;3.13;;
43086;SDS011;28708;52.224;6.924;2023-01-04T04:52:57;4.63;;;3.00;;
43086;SDS011;28708;52.224;6.924;2023-01-04T04:55:23;4.90;;;2.93;;
43086;SDS011;28708;52.224;6.924;2023-01-04T04:57:49;6.40;;;3.00;;
43086;SDS011;28708;52.224;6.924;2023-01-04T05:00:15;3.93;;;3.03;;
43086;SDS011;28708;52.224;6.924;2023-01-04T05:02:41;5.57;;;3.00;;
43086;SDS011;28708;52.224;6.924;2023-01-04T05:05:07;7.07;;;3.23;;
43086;SDS011;28708;52.224;6.924;2023-01-04T05:07:33;5.13;;;3.10;;
43086;SDS011;28708;52.224;6.924;2023-01-04T05:09:58;5.20;;;3.27;;
43086;SDS011;28708;52.224;6.924;2023-01-04T05:12:24;6.97;;;3.13;;
43086;SDS011;28708;52.224;6.924;2023-01-04T05:15:08;5.57;;;3.27;;
43086;SDS011;28708;52.224;6.924;2023-01-04T05:17:34;6.00;;;3.47;;
43086;SDS011;28708;52.224;6.924;2023-01-04T05:20:00;4.83;;;3.53;;
43086;SDS011;28708;52.224;6.924;2023-01-04T05:22:27;6.00;;;3.70;;
43086;SDS011;28708;52.224;6.924;2023-01-04T05:24:52;4.23;;;3.33;;
43086;SDS011;28708;52.224;6.924;2023-01-04T05:27:18;4.80;;;3.70;;
43086;SDS011;28708;52.224;6.924;2023-01-04T05:29:43;4.73;;;3.60;;
43086;SDS011;28708;52.224;6.924;2023-01-04T05:32:28;5.33;;;4.13;;
43086;SDS011;28708;52.224;6.924;2023-01-04T05:34:53;6.10;;;3.67;;
43086;SDS011;28708;52.224;6.924;2023-01-04T05:37:19;5.30;;;3.93;;
43086;SDS011;28708;52.224;6.924;2023-01-04T05:39:44;5.83;;;4.20;;
43086;SDS011;28708;52.224;6.924;2023-01-04T05:42:10;5.03;;;3.93;;
43086;SDS011;28708;52.224;6.924;2023-01-04T05:44:55;7.10;;;3.87;;
43086;SDS011;28708;52.224;6.924;2023-01-04T05:47:23;4.70;;;3.40;;
43086;SDS011;28708;52.224;6.924;2023-01-04T05:49:49;4.70;;;3.50;;
43086;SDS011;28708;52.224;6.924;2023-01-04T05:52:15;4.00;;;3.33;;
43086;SDS011;28708;52.224;6.924;2023-01-04T05:54:41;5.50;;;3.60;;
43086;SDS011;28708;52.224;6.924;2023-01-04T05:57:07;4.60;;;3.57;;
43086;SDS011;28708;52.224;6.924;2023-01-04T05:59:33;6.23;;;3.63;;
43086;SDS011;28708;52.224;6.924;2023-01-04T06:02:00;5.57;;;3.80;;
43086;SDS011;28708;52.224;6.924;2023-01-04T06:04:25;4.20;;;3.67;;
43086;SDS011;28708;52.224;6.924;2023-01-04T06:06:51;5.77;;;3.80;;
43086;SDS011;28708;52.224;6.924;2023-01-04T06:09:17;4.97;;;4.10;;
43086;SDS011;28708;52.224;6.924;2023-01-04T06:11:42;4.73;;;3.83;;
43086;SDS011;28708;52.224;6.924;2023-01-04T06:14:08;4.77;;;3.53;;
43086;SDS011;28708;52.224;6.924;2023-01-04T06:16:34;5.33;;;3.23;;
43086;SDS011;28708;52.224;6.924;2023-01-04T06:18:59;4.00;;;3.47;;
43086;SDS011;28708;52.224;6.924;2023-01-04T06:21:25;5.23;;;4.07;;
43086;SDS011;28708;52.224;6.924;2023-01-04T06:23:51;7.60;;;3.90;;
43086;SDS011;28708;52.224;6.924;2023-01-04T06:26:17;5.23;;;3.73;;
43086;SDS011;28708;52.224;6.924;2023-01-04T06:28:43;5.47;;;4.17;;
43086;SDS011;28708;52.224;6.924;2023-01-04T06:31:09;4.33;;;3.30;;
43086;SDS011;28708;52.224;6.924;2023-01-04T06:33:35;7.30;;;3.60;;
43086;SDS011;28708;52.224;6.924;2023-01-04T06:36:01;6.00;;;3.97;;
43086;SDS011;28708;52.224;6.924;2023-01-04T06:38:27;4.80;;;3.60;;
43086;SDS011;28708;52.224;6.924;2023-01-04T06:40:54;7.43;;;4.20;;
43086;SDS011;28708;52.224;6.924;2023-01-04T06:43:20;4.60;;;4.03;;
43086;SDS011;28708;52.224;6.924;2023-01-04T06:45:45;6.50;;;4.63;;
43086;SDS011;28708;52.224;6.924;2023-01-04T06:48:11;5.13;;;4.20;;
43086;SDS011;28708;52.224;6.924;2023-01-04T06:50:37;6.60;;;4.10;;
43086;SDS011;28708;52.224;6.924;2023-01-04T06:53:02;7.57;;;5.13;;
43086;SDS011;28708;52.224;6.924;2023-01-04T06:55:28;6.90;;;4.60;;
43086;SDS011;28708;52.224;6.924;2023-01-04T06:57:54;7.70;;;4.97;;
43086;SDS011;28708;52.224;6.924;2023-01-04T07:00:20;9.67;;;4.63;;
43086;SDS011;28708;52.224;6.924;2023-01-04T07:02:46;6.43;;;4.63;;
43086;SDS011;28708;52.224;6.924;2023-01-04T07:05:11;6.63;;;4.43;;
43086;SDS011;28708;52.224;6.924;2023-01-04T07:07:37;7.20;;;4.70;;
43086;SDS011;28708;52.224;6.924;2023-01-04T07:10:03;6.27;;;3.80;;
43086;SDS011;28708;52.224;6.924;2023-01-04T07:12:30;6.00;;;4.10;;
43086;SDS011;28708;52.224;6.924;2023-01-04T07:14:56;5.60;;;3.70;;
43086;SDS011;28708;52.224;6.924;2023-01-04T07:17:22;7.53;;;4.00;;
43086;SDS011;28708;52.224;6.924;2023-01-04T07:19:48;4.77;;;3.80;;
43086;SDS011;28708;52.224;6.924;2023-01-04T07:22:13;6.77;;;4.33;;
43086;SDS011;28708;52.224;6.924;2023-01-04T07:24:40;6.50;;;4.30;;
43086;SDS011;28708;52.224;6.924;2023-01-04T07:27:08;7.00;;;3.67;;
43086;SDS011;28708;52.224;6.924;2023-01-04T07:29:34;5.43;;;4.20;;
43086;SDS011;28708;52.224;6.924;2023-01-04T07:32:00;5.70;;;4.27;;
43086;SDS011;28708;52.224;6.924;2023-01-04T07:34:26;8.73;;;4.90;;
43086;SDS011;28708;52.224;6.924;2023-01-04T07:36:52;6.70;;;4.77;;
43086;SDS011;28708;52.224;6.924;2023-01-04T07:39:18;6.73;;;4.40;;
43086;SDS011;28708;52.224;6.924;2023-01-04T07:41:45;4.97;;;4.47;;
43086;SDS011;28708;52.224;6.924;2023-01-04T07:44:16;8.13;;;5.20;;
43086;SDS011;28708;52.224;6.924;2023-01-04T07:46:42;6.27;;;4.73;;
43086;SDS011;28708;52.224;6.924;2023-01-04T07:49:11;5.50;;;4.63;;
43086;SDS011;28708;52.224;6.924;2023-01-04T07:51:38;5.53;;;4.60;;
43086;SDS011;28708;52.224;6.924;2023-01-04T07:54:04;8.43;;;4.97;;
43086;SDS011;28708;52.224;6.924;2023-01-04T07:56:30;5.87;;;5.03;;
43086;SDS011;28708;52.224;6.924;2023-01-04T07:58:55;6.67;;;4.53;;
43086;SDS011;28708;52.224;6.924;2023-01-04T08:01:23;8.40;;;5.23;;
43086;SDS011;28708;52.224;6.924;2023-01-04T08:03:50;7.33;;;4.90;;
43086;SDS011;28708;52.224;6.924;2023-01-04T08:06:17;6.37;;;5.07;;
43086;SDS011;28708;52.224;6.924;2023-01-04T08:08:44;6.67;;;5.00;;
43086;SDS011;28708;52.224;6.924;2023-01-04T08:11:11;6.90;;;5.37;;
43086;SDS011;28708;52.224;6.924;2023-01-04T08:13:39;7.00;;;5.17;;
43086;SDS011;28708;52.224;6.924;2023-01-04T08:16:05;6.60;;;4.83;;
43086;SDS011;28708;52.224;6.924;2023-01-04T08:18:31;7.13;;;5.00;;
43086;SDS011;28708;52.224;6.924;2023-01-04T08:21:04;6.20;;;4.67;;
43086;SDS011;28708;52.224;6.924;2023-01-04T08:23:32;9.50;;;4.87;;
43086;SDS011;28708;52.224;6.924;2023-01-04T08:26:02;6.47;;;4.90;;
43086;SDS011;28708;52.224;6.924;2023-01-04T08:28:33;5.57;;;4.27;;
43086;SDS011;28708;52.224;6.924;2023-01-04T08:31:03;7.93;;;4.73;;
43086;SDS011;28708;52.224;6.924;2023-01-04T08:33:30;12.27;;;4.87;;
43086;SDS011;28708;52.224;6.924;2023-01-04T08:36:09;7.67;;;5.73;;
43086;SDS011;28708;52.224;6.924;2023-01-04T08:38:37;8.60;;;5.50;;
43086;SDS011;28708;52.224;6.924;2023-01-04T08:41:04;6.07;;;4.80;;
43086;SDS011;28708;52.224;6.924;2023-01-04T08:43:30;6.97;;;4.93;;
43086;SDS011;28708;52.224;6.924;2023-01-04T08:45:55;7.33;;;5.37;;
43086;SDS011;28708;52.224;6.924;2023-01-04T08:48:21;8.27;;;5.43;;
43086;SDS011;28708;52.224;6.924;2023-01-04T08:50:47;6.57;;;5.47;;
43086;SDS011;28708;52.224;6.924;2023-01-04T08:53:12;8.53;;;6.20;;
43086;SDS011;28708;52.224;6.924;2023-01-04T08:55:38;8.57;;;5.60;;
43086;SDS011;28708;52.224;6.924;2023-01-04T08:58:04;8.50;;;5.80;;
43086;SDS011;28708;52.224;6.924;2023-01-04T09:00:31;6.80;;;5.90;;
43086;SDS011;28708;52.224;6.924;2023-01-04T09:02:58;8.37;;;5.30;;
43086;SDS011;28708;52.224;6.924;2023-01-04T09:05:23;7.17;;;5.20;;
43086;SDS011;28708;52.224;6.924;2023-01-04T09:07:50;6.93;;;6.03;;
43086;SDS011;28708;52.224;6.924;2023-01-04T09:10:16;7.77;;;5.23;;
43086;SDS011;28708;52.224;6.924;2023-01-04T09:12:42;7.43;;;5.43;;
43086;SDS011;28708;52.224;6.924;2023-01-04T09:15:09;9.37;;;5.47;;
43086;SDS011;28708;52.224;6.924;2023-01-04T09:17:35;7.43;;;5.10;;
43086;SDS011;28708;52.224;6.924;2023-01-04T09:20:01;6.47;;;5.03;;
43086;SDS011;28708;52.224;6.924;2023-01-04T09:22:29;7.53;;;5.43;;
43086;SDS011;28708;52.224;6.924;2023-01-04T09:24:55;8.73;;;5.97;;
43086;SDS011;28708;52.224;6.924;2023-01-04T09:27:20;7.23;;;5.70;;
43086;SDS011;28708;52.224;6.924;2023-01-04T09:29:46;12.53;;;5.50;;
43086;SDS011;28708;52.224;6.924;2023-01-04T09:32:12;6.40;;;4.97;;
43086;SDS011;28708;52.224;6.924;2023-01-04T09:34:37;7.10;;;4.93;;
43086;SDS011;28708;52.224;6.924;2023-01-04T09:37:03;7.87;;;5.00;;
43086;SDS011;28708;52.224;6.924;2023-01-04T09:39:29;7.33;;;5.23;;
43086;SDS011;28708;52.224;6.924;2023-01-04T09:41:56;6.97;;;4.83;;
43086;SDS011;28708;52.224;6.924;2023-01-04T09:47:05;7.47;;;5.60;;
43086;SDS011;28708;52.224;6.924;2023-01-04T09:52:45;7.07;;;4.83;;
43086;SDS011;28708;52.224;6.924;2023-01-04T09:55:35;9.03;;;5.40;;
43086;SDS011;28708;52.224;6.924;2023-01-04T09:58:18;8.95;;;6.05;;
43086;SDS011;28708;52.224;6.924;2023-01-04T10:00:49;7.13;;;5.00;;
43086;SDS011;28708;52.224;6.924;2023-01-04T10:03:32;6.97;;;5.00;;
43086;SDS011;28708;52.224;6.924;2023-01-04T10:06:00;8.47;;;4.80;;
43086;SDS011;28708;52.224;6.924;2023-01-04T10:08:27;6.80;;;4.43;;
43086;SDS011;28708;52.224;6.924;2023-01-04T10:19:58;6.53;;;4.30;;
43086;SDS011;28708;52.224;6.924;2023-01-04T10:30:27;7.83;;;4.23;;
43086;SDS011;28708;52.224;6.924;2023-01-04T10:33:25;8.80;;;3.90;;
43086;SDS011;28708;52.224;6.924;2023-01-04T10:36:19;8.60;;;3.93;;
43086;SDS011;28708;52.224;6.924;2023-01-04T10:38:53;7.70;;;3.70;;
43086;SDS011;28708;52.224;6.924;2023-01-04T10:41:23;8.67;;;3.80;;
43086;SDS011;28708;52.224;6.924;2023-01-04T10:43:57;7.93;;;3.30;;
43086;SDS011;28708;52.224;6.924;2023-01-04T10:46:34;8.13;;;3.07;;
43086;SDS011;28708;52.224;6.924;2023-01-04T10:49:10;5.70;;;2.90;;
43086;SDS011;28708;52.224;6.924;2023-01-04T10:56:50;4.43;;;2.47;;
43086;SDS011;28708;52.224;6.924;2023-01-04T10:59:50;6.70;;;2.67;;
43086;SDS011;28708;52.224;6.924;2023-01-04T11:02:28;5.77;;;2.10;;
43086;SDS011;28708;52.224;6.924;2023-01-04T11:05:17;6.30;;;2.43;;
43086;SDS011;28708;52.224;6.924;2023-01-04T11:08:00;5.28;;;2.55;;
43086;SDS011;28708;52.224;6.924;2023-01-04T11:10:36;9.23;;;2.43;;
43086;SDS011;28708;52.224;6.924;2023-01-04T11:13:17;4.33;;;1.97;;
43086;SDS011;28708;52.224;6.924;2023-01-04T11:15:43;5.07;;;2.20;;
43086;SDS011;28708;52.224;6.924;2023-01-04T11:18:11;5.33;;;2.33;;
43086;SDS011;28708;52.224;6.924;2023-01-04T11:20:38;4.30;;;1.73;;
43086;SDS011;28708;52.224;6.924;2023-01-04T11:23:14;4.37;;;1.80;;
43086;SDS011;28708;52.224;6.924;2023-01-04T11:25:44;5.10;;;1.57;;
43086;SDS011;28708;52.224;6.924;2023-01-04T11:31:15;3.20;;;1.70;;
43086;SDS011;28708;52.224;6.924;2023-01-04T11:33:57;4.63;;;1.40;;
43086;SDS011;28708;52.224;6.924;2023-01-04T11:39:01;4.47;;;1.47;;
43086;SDS011;28708;52.224;6.924;2023-01-04T11:41:28;4.43;;;1.53;;
43086;SDS011;28708;52.224;6.924;2023-01-04T11:43:58;3.57;;;1.27;;
43086;SDS011;28708;52.224;6.924;2023-01-04T11:46:29;3.43;;;1.43;;
43086;SDS011;28708;52.224;6.924;2023-01-04T11:48:57;4.20;;;1.70;;
43086;SDS011;28708;52.224;6.924;2023-01-04T11:54:01;3.73;;;1.63;;
43086;SDS011;28708;52.224;6.924;2023-01-04T11:56:33;5.23;;;1.50;;
43086;SDS011;28708;52.224;6.924;2023-01-04T11:59:10;2.60;;;1.30;;
43086;SDS011;28708;52.224;6.924;2023-01-04T12:04:29;2.70;;;1.47;;
43086;SDS011;28708;52.224;6.924;2023-01-04T12:09:49;2.00;;;1.30;;
43086;SDS011;28708;52.224;6.924;2023-01-04T12:12:15;2.67;;;1.63;;
43086;SDS011;28708;52.224;6.924;2023-01-04T12:14:44;2.27;;;1.33;;
43086;SDS011;28708;52.224;6.924;2023-01-04T12:17:20;2.90;;;1.50;;
43086;SDS011;28708;52.224;6.924;2023-01-04T12:19:54;3.10;;;1.30;;
43086;SDS011;28708;52.224;6.924;2023-01-04T12:22:30;2.77;;;1.67;;
43086;SDS011;28708;52.224;6.924;2023-01-04T12:25:04;2.95;;;1.58;;
43086;SDS011;28708;52.224;6.924;2023-01-04T12:27:49;2.13;;;1.50;;
43086;SDS011;28708;52.224;6.924;2023-01-04T12:33:53;1.93;;;1.40;;
43086;SDS011;28708;52.224;6.924;2023-01-04T12:41:16;3.97;;;2.00;;
43086;SDS011;28708;52.224;6.924;2023-01-04T12:43:42;1.80;;;1.40;;
43086;SDS011;28708;52.224;6.924;2023-01-04T13:02:32;2.80;;;1.50;;
43086;SDS011;28708;52.224;6.924;2023-01-04T13:07:44;5.97;;;1.77;;
43086;SDS011;28708;52.224;6.924;2023-01-04T13:15:48;7.70;;;2.00;;
43086;SDS011;28708;52.224;6.924;2023-01-04T13:23:38;4.57;;;2.10;;
43086;SDS011;28708;52.224;6.924;2023-01-04T13:32:15;7.03;;;2.40;;
43086;SDS011;28708;52.224;6.924;2023-01-04T13:35:02;6.63;;;2.43;;
43086;SDS011;28708;52.224;6.924;2023-01-04T13:43:05;9.17;;;2.57;;
43086;SDS011;28708;52.224;6.924;2023-01-04T13:45:50;6.60;;;2.00;;
43086;SDS011;28708;52.224;6.924;2023-01-04T13:48:37;9.53;;;2.63;;
43086;SDS011;28708;52.224;6.924;2023-01-04T13:51:12;10.40;;;2.77;;
43086;SDS011;28708;52.224;6.924;2023-01-04T13:53:50;7.00;;;2.10;;
43086;SDS011;28708;52.224;6.924;2023-01-04T13:56:23;8.17;;;2.10;;
43086;SDS011;28708;52.224;6.924;2023-01-04T13:58:51;9.40;;;2.10;;
43086;SDS011;28708;52.224;6.924;2023-01-04T14:01:26;13.57;;;2.93;;
43086;SDS011;28708;52.224;6.924;2023-01-04T14:04:00;9.30;;;2.27;;
43086;SDS011;28708;52.224;6.924;2023-01-04T14:06:28;14.33;;;2.87;;
43086;SDS011;28708;52.224;6.924;2023-01-04T14:14:32;10.80;;;2.27;;
43086;SDS011;28708;52.224;6.924;2023-01-04T14:19:38;11.40;;;2.07;;
43086;SDS011;28708;52.224;6.924;2023-01-04T14:24:50;8.40;;;2.30;;
43086;SDS011;28708;52.224;6.924;2023-01-04T14:27:35;12.90;;;2.50;;
43086;SDS011;28708;52.224;6.924;2023-01-04T14:33:00;9.57;;;2.30;;
43086;SDS011;28708;52.224;6.924;2023-01-04T14:35:30;8.33;;;2.43;;
43086;SDS011;28708;52.224;6.924;2023-01-04T14:38:02;8.20;;;2.80;;
43086;SDS011;28708;52.224;6.924;2023-01-04T14:40:30;10.83;;;2.93;;
43086;SDS011;28708;52.224;6.924;2023-01-04T14:42:56;9.40;;;2.73;;
43086;SDS011;28708;52.224;6.924;2023-01-04T14:45:22;7.83;;;2.57;;
43086;SDS011;28708;52.224;6.924;2023-01-04T14:47:48;7.63;;;2.20;;
43086;SDS011;28708;52.224;6.924;2023-01-04T14:50:14;11.60;;;3.13;;
43086;SDS011;28708;52.224;6.924;2023-01-04T14:52:48;10.87;;;2.20;;
43086;SDS011;28708;52.224;6.924;2023-01-04T14:55:14;7.90;;;2.40;;
43086;SDS011;28708;52.224;6.924;2023-01-04T14:57:40;11.83;;;2.80;;
43086;SDS011;28708;52.224;6.924;2023-01-04T15:00:11;10.43;;;2.77;;
43086;SDS011;28708;52.224;6.924;2023-01-04T15:02:38;9.60;;;2.83;;
43086;SDS011;28708;52.224;6.924;2023-01-04T15:05:04;15.73;;;2.97;;
43086;SDS011;28708;52.224;6.924;2023-01-04T15:07:31;12.07;;;2.73;;
43086;SDS011;28708;52.224;6.924;2023-01-04T15:10:04;8.23;;;3.17;;
43086;SDS011;28708;52.224;6.924;2023-01-04T15:12:32;6.83;;;2.70;;
43086;SDS011;28708;52.224;6.924;2023-01-04T15:14:58;9.93;;;2.90;;
43086;SDS011;28708;52.224;6.924;2023-01-04T15:17:24;9.43;;;2.63;;
43086;SDS011;28708;52.224;6.924;2023-01-04T15:19:50;10.93;;;2.90;;
43086;SDS011;28708;52.224;6.924;2023-01-04T15:22:15;9.20;;;3.00;;
43086;SDS011;28708;52.224;6.924;2023-01-04T15:24:41;11.83;;;2.87;;
43086;SDS011;28708;52.224;6.924;2023-01-04T15:27:06;8.67;;;2.47;;
43086;SDS011;28708;52.224;6.924;2023-01-04T15:29:32;8.40;;;2.73;;
43086;SDS011;28708;52.224;6.924;2023-01-04T15:31:58;9.20;;;2.57;;
43086;SDS011;28708;52.224;6.924;2023-01-04T15:34:24;11.93;;;3.03;;
43086;SDS011;28708;52.224;6.924;2023-01-04T15:36:50;12.40;;;3.10;;
43086;SDS011;28708;52.224;6.924;2023-01-04T15:39:16;13.90;;;2.60;;
43086;SDS011;28708;52.224;6.924;2023-01-04T15:41:41;18.27;;;2.93;;
43086;SDS011;28708;52.224;6.924;2023-01-04T15:44:26;12.67;;;2.87;;
43086;SDS011;28708;52.224;6.924;2023-01-04T15:46:52;13.73;;;3.03;;
43086;SDS011;28708;52.224;6.924;2023-01-04T15:49:18;11.10;;;2.53;;
43086;SDS011;28708;52.224;6.924;2023-01-04T15:51:44;12.17;;;2.97;;
43086;SDS011;28708;52.224;6.924;2023-01-04T15:54:10;12.83;;;3.00;;
43086;SDS011;28708;52.224;6.924;2023-01-04T15:56:36;13.77;;;3.23;;
43086;SDS011;28708;52.224;6.924;2023-01-04T15:59:01;9.60;;;2.30;;
43086;SDS011;28708;52.224;6.924;2023-01-04T16:01:27;12.87;;;2.60;;
43086;SDS011;28708;52.224;6.924;2023-01-04T16:03:53;9.63;;;2.57;;
43086;SDS011;28708;52.224;6.924;2023-01-04T16:06:18;13.87;;;3.00;;
43086;SDS011;28708;52.224;6.924;2023-01-04T16:08:44;12.97;;;3.23;;
43086;SDS011;28708;52.224;6.924;2023-01-04T16:11:17;11.20;;;3.23;;
43086;SDS011;28708;52.224;6.924;2023-01-04T16:13:45;12.20;;;2.83;;
43086;SDS011;28708;52.224;6.924;2023-01-04T16:16:12;11.23;;;3.03;;
43086;SDS011;28708;52.224;6.924;2023-01-04T16:18:42;16.87;;;3.10;;
43086;SDS011;28708;52.224;6.924;2023-01-04T16:21:10;15.43;;;3.67;;
43086;SDS011;28708;52.224;6.924;2023-01-04T16:23:36;12.10;;;3.07;;
43086;SDS011;28708;52.224;6.924;2023-01-04T16:26:06;10.13;;;3.07;;
43086;SDS011;28708;52.224;6.924;2023-01-04T16:28:33;16.20;;;3.53;;
43086;SDS011;28708;52.224;6.924;2023-01-04T16:30:59;16.07;;;3.67;;
43086;SDS011;28708;52.224;6.924;2023-01-04T16:33:25;17.10;;;4.20;;
43086;SDS011;28708;52.224;6.924;2023-01-04T16:36:25;11.87;;;3.40;;
43086;SDS011;28708;52.224;6.924;2023-01-04T16:38:44;21.90;;;3.50;;
43086;SDS011;28708;52.224;6.924;2023-01-04T16:41:13;14.50;;;3.47;;
43086;SDS011;28708;52.224;6.924;2023-01-04T16:43:48;23.47;;;3.90;;
43086;SDS011;28708;52.224;6.924;2023-01-04T16:46:22;21.53;;;4.03;;
43086;SDS011;28708;52.224;6.924;2023-01-04T16:48:53;19.97;;;4.30;;
43086;SDS011;28708;52.224;6.924;2023-01-04T16:51:20;18.83;;;3.93;;
43086;SDS011;28708;52.224;6.924;2023-01-04T16:53:47;17.03;;;3.50;;
43086;SDS011;28708;52.224;6.924;2023-01-04T16:56:15;23.17;;;4.13;;
43086;SDS011;28708;52.224;6.924;2023-01-04T16:58:41;20.77;;;3.83;;
43086;SDS011;28708;52.224;6.924;2023-01-04T17:03:53;20.53;;;3.80;;
43086;SDS011;28708;52.224;6.924;2023-01-04T17:06:21;18.58;;;4.00;;
43086;SDS011;28708;52.224;6.924;2023-01-04T17:08:49;24.20;;;4.27;;
43086;SDS011;28708;52.224;6.924;2023-01-04T17:11:19;25.47;;;4.93;;
43086;SDS011;28708;52.224;6.924;2023-01-04T17:13:47;18.53;;;3.60;;
43086;SDS011;28708;52.224;6.924;2023-01-04T17:16:13;22.83;;;4.67;;
43086;SDS011;28708;52.224;6.924;2023-01-04T17:18:39;28.80;;;4.87;;